Time;durP1;ratioP1;P1;durP2;ratioP2;P2;SDS_P1;SDS_P2;PMS_P1;PMS_P2;Temp;Humidity;BMP_temperature;BMP_pressure;BME280_temperature;BME280_humidity;BME280_pressure;Samples;Min_cycle;Max_cycle;Signal;HPM_P1;HPM_P2
2022/07/28 00:02:04;;;;;;;3.47;1.70;;;;;;;;;;5053985;28;20467;-76
2022/07/28 00:04:31;;;;;;;2.87;1.20;;;;;;;;;;5053596;28;20425;-75
2022/07/28 00:06:57;;;;;;;3.67;1.33;;;;;;;;;;5054110;28;20402;-75
2022/07/28 00:09:23;;;;;;;3.77;1.70;;;;;;;;;;5053906;28;20387;-75
2022/07/28 00:11:49;;;;;;;5.07;1.60;;;;;;;;;;5053790;28;20397;-76
2022/07/28 00:14:15;;;;;;;3.00;1.40;;;;;;;;;;5053301;28;20451;-75
2022/07/28 00:16:41;;;;;;;5.27;1.60;;;;;;;;;;5052787;28;20449;-76
2022/07/28 00:19:07;;;;;;;5.33;2.00;;;;;;;;;;5053885;28;20387;-76
2022/07/28 00:21:33;;;;;;;3.00;1.53;;;;;;;;;;5053949;28;20405;-76
2022/07/28 00:23:59;;;;;;;3.00;1.40;;;;;;;;;;5052371;28;20428;-76
2022/07/28 00:26:25;;;;;;;3.50;1.60;;;;;;;;;;5053579;28;20413;-75
2022/07/28 00:28:51;;;;;;;7.40;1.60;;;;;;;;;;5053692;28;20418;-75
2022/07/28 00:31:17;;;;;;;3.83;1.60;;;;;;;;;;5053369;28;20383;-78
2022/07/28 00:33:43;;;;;;;7.13;1.47;;;;;;;;;;5053193;28;20474;-76
2022/07/28 00:36:09;;;;;;;2.03;1.20;;;;;;;;;;5053478;28;20409;-75
2022/07/28 00:38:36;;;;;;;5.10;1.60;;;;;;;;;;5052402;28;20421;-76
2022/07/28 00:41:11;;;;;;;3.60;1.33;;;;;;;;;;5053464;28;20409;-76
2022/07/28 00:43:43;;;;;;;3.40;1.30;;;;;;;;;;5053040;28;20540;-76
2022/07/28 00:46:09;;;;;;;3.47;1.40;;;;;;;;;;5053263;28;20525;-76
2022/07/28 00:48:39;;;;;;;6.17;1.60;;;;;;;;;;5053236;28;20470;-76
2022/07/28 00:51:08;;;;;;;2.67;1.57;;;;;;;;;;5053164;28;20405;-76
2022/07/28 00:53:34;;;;;;;1.37;1.23;;;;;;;;;;5051632;28;20603;-76
2022/07/28 00:56:00;;;;;;;2.33;1.57;;;;;;;;;;5053206;28;20463;-77
2022/07/28 00:58:26;;;;;;;2.83;1.67;;;;;;;;;;5053060;28;20409;-76
2022/07/28 01:00:52;;;;;;;2.17;1.20;;;;;;;;;;5053374;28;20380;-76
2022/07/28 01:03:18;;;;;;;2.03;1.40;;;;;;;;;;5053050;28;20935;-76
2022/07/28 01:06:03;;;;;;;6.73;3.10;;;;;;;;;;5056318;28;20404;-75
2022/07/28 01:08:47;;;;;;;6.97;1.50;;;;;;;;;;5053193;28;20453;-75
2022/07/28 01:11:19;;;;;;;2.17;1.63;;;;;;;;;;5053667;28;20374;-76
2022/07/28 01:13:49;;;;;;;2.77;1.93;;;;;;;;;;5052951;28;20464;-76
2022/07/28 01:16:15;;;;;;;4.40;1.60;;;;;;;;;;5052960;28;20525;-77
2022/07/28 01:18:44;;;;;;;9.77;1.73;;;;;;;;;;5053006;28;20398;-75
2022/07/28 01:21:11;;;;;;;5.00;1.87;;;;;;;;;;5053039;28;20488;-75
2022/07/28 01:23:48;;;;;;;7.27;1.67;;;;;;;;;;5052620;28;20436;-75
2022/07/28 01:26:20;;;;;;;3.93;1.27;;;;;;;;;;5053178;28;20783;-75
2022/07/28 01:29:04;;;;;;;4.60;1.60;;;;;;;;;;5053017;28;20441;-76
2022/07/28 01:31:34;;;;;;;2.97;1.53;;;;;;;;;;5053158;28;20799;-76
2022/07/28 01:34:03;;;;;;;3.17;1.40;;;;;;;;;;5052594;28;20443;-75
2022/07/28 01:36:32;;;;;;;4.30;1.60;;;;;;;;;;5056222;28;20445;-76
2022/07/28 01:38:59;;;;;;;4.20;1.70;;;;;;;;;;5056922;28;20468;-75
2022/07/28 01:41:27;;;;;;;4.17;1.50;;;;;;;;;;5056794;28;20507;-75
2022/07/28 01:43:59;;;;;;;2.23;1.70;;;;;;;;;;5056595;28;20523;-76
2022/07/28 01:46:26;;;;;;;4.20;1.43;;;;;;;;;;5056557;28;20461;-76
2022/07/28 01:48:53;;;;;;;3.83;1.33;;;;;;;;;;5057701;28;20425;-76
2022/07/28 01:51:20;;;;;;;4.00;1.83;;;;;;;;;;5056598;28;20818;-75
2022/07/28 01:53:47;;;;;;;1.60;1.50;;;;;;;;;;5056032;28;20439;-75
2022/07/28 01:56:14;;;;;;;2.60;1.60;;;;;;;;;;5056498;28;20390;-75
2022/07/28 01:58:41;;;;;;;4.27;1.27;;;;;;;;;;5056125;28;20385;-78
2022/07/28 02:01:09;;;;;;;2.40;1.70;;;;;;;;;;5056430;28;20417;-77
2022/07/28 02:03:36;;;;;;;2.73;1.47;;;;;;;;;;5056304;28;20411;-77
2022/07/28 02:06:04;;;;;;;4.60;1.50;;;;;;;;;;5056301;28;20495;-76
2022/07/28 02:08:31;;;;;;;2.93;1.43;;;;;;;;;;5056203;28;20380;-76
2022/07/28 02:13:43;;;;;;;3.20;1.43;;;;;;;;;;5056131;28;20584;-76
2022/07/28 02:16:10;;;;;;;2.87;1.30;;;;;;;;;;5056001;28;20886;-76
2022/07/28 02:18:37;;;;;;;12.90;1.80;;;;;;;;;;5056156;28;20742;-76
2022/07/28 02:21:05;;;;;;;3.70;1.87;;;;;;;;;;5056156;28;20395;-76
2022/07/28 02:23:32;;;;;;;5.20;1.80;;;;;;;;;;5055859;28;20405;-76
2022/07/28 02:25:58;;;;;;;3.40;1.23;;;;;;;;;;5056060;28;20864;-77
2022/07/28 02:28:25;;;;;;;2.97;1.13;;;;;;;;;;5055832;28;20423;-76
2022/07/28 02:31:10;;;;;;;3.53;1.93;;;;;;;;;;5054683;28;20427;-77
2022/07/28 02:33:37;;;;;;;2.80;1.73;;;;;;;;;;5055298;28;20964;-76
2022/07/28 02:36:12;;;;;;;4.00;1.67;;;;;;;;;;5055792;28;20392;-76
2022/07/28 02:38:39;;;;;;;2.27;1.57;;;;;;;;;;5056128;28;20406;-77
2022/07/28 02:41:11;;;;;;;2.07;1.73;;;;;;;;;;5055513;28;20448;-76
2022/07/28 02:43:37;;;;;;;6.43;2.30;;;;;;;;;;5055190;28;20403;-76
2022/07/28 02:46:05;;;;;;;4.30;1.20;;;;;;;;;;5054817;28;20520;-76
2022/07/28 02:48:35;;;;;;;6.97;2.00;;;;;;;;;;5055153;28;20740;-76
2022/07/28 02:51:02;;;;;;;2.33;1.40;;;;;;;;;;5055230;28;20428;-77
2022/07/28 02:53:28;;;;;;;5.17;1.97;;;;;;;;;;5054983;28;20415;-77
2022/07/28 02:55:55;;;;;;;2.20;1.27;;;;;;;;;;5055377;28;20445;-77
2022/07/28 02:58:23;;;;;;;3.43;1.60;;;;;;;;;;5055263;28;20388;-76
2022/07/28 03:00:49;;;;;;;6.07;1.60;;;;;;;;;;5055223;28;20391;-77
2022/07/28 03:03:17;;;;;;;2.97;1.60;;;;;;;;;;5054781;28;20481;-76
2022/07/28 03:05:43;;;;;;;8.00;1.93;;;;;;;;;;5055340;28;20889;-76
2022/07/28 03:08:09;;;;;;;1.77;1.20;;;;;;;;;;5055227;28;20413;-76
2022/07/28 03:10:35;;;;;;;3.00;1.50;;;;;;;;;;5055062;28;20384;-76
2022/07/28 03:13:04;;;;;;;4.50;1.43;;;;;;;;;;5054642;28;20425;-77
2022/07/28 03:15:30;;;;;;;5.13;1.77;;;;;;;;;;5054912;28;20431;-77
2022/07/28 03:17:56;;;;;;;2.83;1.50;;;;;;;;;;5053717;28;20387;-77
2022/07/28 03:20:22;;;;;;;3.83;1.50;;;;;;;;;;5053847;28;20416;-76
2022/07/28 03:22:48;;;;;;;2.17;1.33;;;;;;;;;;5054518;28;20462;-76
2022/07/28 03:25:20;;;;;;;2.17;1.20;;;;;;;;;;5055003;28;20786;-76
2022/07/28 03:27:49;;;;;;;4.03;1.37;;;;;;;;;;5054871;28;20388;-76
2022/07/28 03:30:18;;;;;;;4.10;2.13;;;;;;;;;;5054968;28;20391;-76
2022/07/28 03:32:46;;;;;;;2.43;1.70;;;;;;;;;;5054895;28;20502;-76
2022/07/28 03:35:12;;;;;;;2.60;1.67;;;;;;;;;;5054914;28;20885;-76
2022/07/28 03:37:41;;;;;;;2.40;1.80;;;;;;;;;;5054628;28;20906;-76
2022/07/28 03:40:09;;;;;;;4.00;1.77;;;;;;;;;;5054535;28;20529;-76
2022/07/28 03:42:36;;;;;;;8.23;3.07;;;;;;;;;;5054019;28;21006;-76
2022/07/28 03:45:04;;;;;;;2.33;1.50;;;;;;;;;;5054305;28;20399;-76
2022/07/28 03:47:30;;;;;;;1.90;1.63;;;;;;;;;;5053000;28;20474;-76
2022/07/28 03:49:56;;;;;;;2.80;1.80;;;;;;;;;;5054495;28;20983;-76
2022/07/28 03:52:22;;;;;;;2.63;1.87;;;;;;;;;;5053970;28;20912;-76
2022/07/28 03:54:48;;;;;;;3.00;1.30;;;;;;;;;;5054177;28;20474;-76
2022/07/28 03:57:14;;;;;;;3.97;2.13;;;;;;;;;;5054055;28;20418;-76
2022/07/28 03:59:40;;;;;;;4.80;2.00;;;;;;;;;;5054158;28;20433;-76
2022/07/28 04:02:09;;;;;;;2.90;1.30;;;;;;;;;;5055500;28;20403;-76
2022/07/28 04:04:35;;;;;;;9.53;2.17;;;;;;;;;;5054313;28;20861;-76
2022/07/28 04:07:01;;;;;;;6.50;2.53;;;;;;;;;;5054265;28;20412;-76
2022/07/28 04:09:27;;;;;;;6.17;2.60;;;;;;;;;;5053867;28;20413;-76
2022/07/28 04:11:53;;;;;;;9.67;2.23;;;;;;;;;;5052581;28;20428;-77
2022/07/28 04:14:19;;;;;;;5.20;1.90;;;;;;;;;;5053331;28;20471;-76
2022/07/28 04:16:45;;;;;;;2.97;2.00;;;;;;;;;;5053811;28;20770;-77
2022/07/28 04:19:11;;;;;;;5.07;1.80;;;;;;;;;;5053874;28;20379;-75
2022/07/28 04:21:37;;;;;;;4.30;1.77;;;;;;;;;;5053604;28;20466;-76
2022/07/28 04:24:04;;;;;;;3.37;2.00;;;;;;;;;;5053312;28;20848;-76
2022/07/28 04:26:30;;;;;;;2.13;1.90;;;;;;;;;;5052803;28;20426;-77
2022/07/28 04:28:56;;;;;;;6.40;2.17;;;;;;;;;;5053780;28;20904;-77
2022/07/28 04:31:21;;;;;;;2.50;2.30;;;;;;;;;;5053710;28;20415;-77
2022/07/28 04:33:49;;;;;;;4.53;1.80;;;;;;;;;;5053016;28;20561;-76
2022/07/28 04:36:16;;;;;;;7.50;2.50;;;;;;;;;;5053654;28;20410;-76
2022/07/28 04:38:42;;;;;;;2.43;2.00;;;;;;;;;;5053773;28;20422;-77
2022/07/28 04:41:08;;;;;;;7.13;2.07;;;;;;;;;;5053398;28;20448;-76
2022/07/28 04:43:34;;;;;;;2.13;1.40;;;;;;;;;;5053116;28;20433;-76
2022/07/28 04:46:00;;;;;;;4.00;2.37;;;;;;;;;;5051904;28;20447;-76
2022/07/28 04:48:26;;;;;;;2.27;1.80;;;;;;;;;;5053468;28;20424;-76
2022/07/28 04:50:52;;;;;;;3.70;2.10;;;;;;;;;;5053638;28;20654;-76
2022/07/28 04:53:18;;;;;;;4.20;1.60;;;;;;;;;;5052838;28;20439;-76
2022/07/28 04:55:45;;;;;;;6.23;2.27;;;;;;;;;;5053230;28;20746;-78
2022/07/28 04:58:11;;;;;;;2.83;1.90;;;;;;;;;;5053178;28;20386;-77
2022/07/28 05:00:37;;;;;;;6.57;2.10;;;;;;;;;;5053462;28;20417;-76
2022/07/28 05:03:04;;;;;;;2.63;2.10;;;;;;;;;;5052832;28;20407;-76
2022/07/28 05:05:30;;;;;;;3.27;1.77;;;;;;;;;;5053178;28;20420;-76
2022/07/28 05:07:56;;;;;;;2.83;2.03;;;;;;;;;;5053141;28;20409;-77
2022/07/28 05:10:22;;;;;;;3.40;1.97;;;;;;;;;;5052470;28;20421;-77
2022/07/28 05:12:48;;;;;;;3.90;2.10;;;;;;;;;;5052957;28;20387;-75
2022/07/28 05:15:14;;;;;;;4.77;2.40;;;;;;;;;;5052909;28;20825;-77
2022/07/28 05:17:40;;;;;;;13.50;2.37;;;;;;;;;;5056176;28;20415;-76
2022/07/28 05:20:07;;;;;;;3.10;2.27;;;;;;;;;;5052943;28;20416;-77
2022/07/28 05:22:46;;;;;;;2.67;1.80;;;;;;;;;;5052618;28;20898;-77
2022/07/28 05:25:22;;;;;;;7.20;2.27;;;;;;;;;;5052970;28;20404;-76
2022/07/28 05:27:49;;;;;;;6.53;2.40;;;;;;;;;;5053088;28;20835;-75
2022/07/28 05:30:15;;;;;;;3.03;2.23;;;;;;;;;;5052881;28;20790;-75
2022/07/28 05:32:43;;;;;;;2.30;2.10;;;;;;;;;;5052493;28;20427;-76
2022/07/28 05:35:09;;;;;;;3.80;2.10;;;;;;;;;;5053080;28;20438;-75
2022/07/28 05:37:36;;;;;;;7.07;2.03;;;;;;;;;;5052888;28;20410;-75
2022/07/28 05:40:03;;;;;;;5.13;1.77;;;;;;;;;;5053062;28;20577;-75
2022/07/28 05:42:34;;;;;;;2.30;1.77;;;;;;;;;;5052575;28;20397;-76
2022/07/28 05:45:00;;;;;;;6.50;2.13;;;;;;;;;;5052719;28;20479;-75
2022/07/28 05:47:26;;;;;;;3.20;1.63;;;;;;;;;;5052773;28;20453;-75
2022/07/28 05:49:52;;;;;;;3.57;2.40;;;;;;;;;;5052820;28;20395;-75
2022/07/28 05:52:18;;;;;;;6.40;1.67;;;;;;;;;;5052222;28;20409;-76
2022/07/28 05:54:44;;;;;;;5.20;2.67;;;;;;;;;;5052442;28;20979;-75
2022/07/28 05:57:11;;;;;;;3.20;1.87;;;;;;;;;;5052514;28;20478;-75
2022/07/28 05:59:37;;;;;;;5.07;2.27;;;;;;;;;;5052653;28;20459;-75
2022/07/28 06:02:03;;;;;;;3.10;1.70;;;;;;;;;;5036297;28;20789;-75
2022/07/28 06:04:29;;;;;;;3.20;1.43;;;;;;;;;;5032226;28;20952;-76
2022/07/28 06:06:55;;;;;;;3.63;1.87;;;;;;;;;;5031528;28;20387;-76
2022/07/28 06:09:21;;;;;;;3.80;1.50;;;;;;;;;;5032727;28;20376;-76
2022/07/28 06:11:49;;;;;;;5.20;2.40;;;;;;;;;;5032640;28;20387;-76
2022/07/28 06:14:15;;;;;;;3.33;1.80;;;;;;;;;;5032464;28;20471;-76
2022/07/28 06:16:41;;;;;;;5.17;1.90;;;;;;;;;;5032547;28;20434;-76
2022/07/28 06:19:07;;;;;;;7.20;2.00;;;;;;;;;;5032529;28;20380;-77
2022/07/28 06:21:33;;;;;;;3.30;2.03;;;;;;;;;;5032911;28;20733;-76
2022/07/28 06:23:59;;;;;;;3.83;1.77;;;;;;;;;;5036027;28;20431;-76
2022/07/28 06:26:25;;;;;;;8.13;2.20;;;;;;;;;;5034999;28;20423;-76
2022/07/28 06:28:51;;;;;;;6.80;2.30;;;;;;;;;;5035895;28;20826;-76
2022/07/28 06:31:17;;;;;;;2.47;1.83;;;;;;;;;;5036185;28;20424;-76
2022/07/28 06:33:43;;;;;;;10.60;2.60;;;;;;;;;;5035437;28;20461;-76
2022/07/28 06:36:09;;;;;;;3.63;1.90;;;;;;;;;;5035950;28;20402;-75
2022/07/28 06:38:35;;;;;;;4.20;2.03;;;;;;;;;;5035747;28;20405;-76
2022/07/28 06:41:01;;;;;;;2.93;1.80;;;;;;;;;;5035780;28;20406;-76
2022/07/28 06:43:27;;;;;;;4.10;2.30;;;;;;;;;;5035333;28;20444;-76
2022/07/28 06:45:53;;;;;;;5.23;2.10;;;;;;;;;;5035537;28;20415;-77
2022/07/28 06:48:19;;;;;;;7.10;2.27;;;;;;;;;;5035647;28;20421;-77
2022/07/28 06:50:45;;;;;;;3.17;1.97;;;;;;;;;;5035741;28;20399;-77
2022/07/28 06:53:11;;;;;;;2.77;1.80;;;;;;;;;;5035145;28;20790;-77
2022/07/28 06:55:37;;;;;;;4.93;2.93;;;;;;;;;;5035409;28;20451;-77
2022/07/28 06:58:03;;;;;;;6.67;2.50;;;;;;;;;;5034159;28;20964;-77
2022/07/28 07:00:29;;;;;;;4.73;1.97;;;;;;;;;;5035432;28;20414;-77
2022/07/28 07:02:55;;;;;;;4.33;1.57;;;;;;;;;;5033826;28;20404;-77
2022/07/28 07:05:21;;;;;;;8.73;1.80;;;;;;;;;;5035154;28;20909;-77
2022/07/28 07:07:47;;;;;;;4.30;2.27;;;;;;;;;;5035177;28;20413;-77
2022/07/28 07:10:14;;;;;;;8.47;2.20;;;;;;;;;;5035272;28;20424;-77
2022/07/28 07:12:39;;;;;;;2.37;1.80;;;;;;;;;;5034963;28;20403;-76
2022/07/28 07:15:07;;;;;;;5.90;1.73;;;;;;;;;;5033790;28;20469;-77
2022/07/28 07:17:33;;;;;;;4.43;1.63;;;;;;;;;;5035293;28;20750;-77
2022/07/28 07:19:59;;;;;;;3.53;1.80;;;;;;;;;;5035316;28;20817;-76
2022/07/28 07:22:25;;;;;;;1.90;1.70;;;;;;;;;;5034664;28;20413;-78
2022/07/28 07:24:51;;;;;;;7.20;2.00;;;;;;;;;;5034935;28;20448;-77
2022/07/28 07:27:17;;;;;;;8.23;2.30;;;;;;;;;;5034704;28;20556;-76
2022/07/28 07:29:43;;;;;;;3.77;1.90;;;;;;;;;;5034861;28;20467;-75
2022/07/28 07:32:09;;;;;;;7.73;2.10;;;;;;;;;;5034346;28;20590;-76
2022/07/28 07:34:35;;;;;;;2.93;1.90;;;;;;;;;;5034129;28;20871;-76
2022/07/28 07:37:01;;;;;;;2.87;1.90;;;;;;;;;;5034652;28;20391;-77
2022/07/28 07:39:27;;;;;;;4.80;1.90;;;;;;;;;;5034546;28;20499;-77
2022/07/28 07:41:53;;;;;;;5.73;2.03;;;;;;;;;;5034670;28;20418;-78
2022/07/28 07:44:18;;;;;;;2.80;1.80;;;;;;;;;;5034099;28;20798;-77
2022/07/28 07:46:44;;;;;;;4.50;2.07;;;;;;;;;;5034453;28;20426;-76
2022/07/28 07:49:10;;;;;;;4.07;1.80;;;;;;;;;;5033260;28;20423;-77
2022/07/28 07:51:36;;;;;;;5.07;1.87;;;;;;;;;;5034244;28;20425;-76
2022/07/28 07:54:02;;;;;;;6.53;2.10;;;;;;;;;;5033890;28;20501;-76
2022/07/28 07:56:28;;;;;;;11.20;2.53;;;;;;;;;;5034252;28;20910;-75
2022/07/28 07:58:55;;;;;;;2.47;1.37;;;;;;;;;;5032852;28;20404;-75
2022/07/28 08:01:21;;;;;;;6.27;2.00;;;;;;;;;;5033939;28;20388;-76
2022/07/28 08:03:47;;;;;;;3.03;1.40;;;;;;;;;;5033669;28;20499;-75
2022/07/28 08:06:13;;;;;;;2.50;1.87;;;;;;;;;;5032827;28;20416;-75
2022/07/28 08:08:39;;;;;;;5.27;1.90;;;;;;;;;;5034076;28;20899;-75
2022/07/28 08:11:05;;;;;;;5.10;1.60;;;;;;;;;;5035577;28;20927;-77
2022/07/28 08:13:31;;;;;;;2.50;1.70;;;;;;;;;;5036980;28;20450;-76
2022/07/28 08:15:58;;;;;;;7.43;2.13;;;;;;;;;;5034061;28;20414;-78
2022/07/28 08:18:24;;;;;;;2.90;1.77;;;;;;;;;;5039994;28;20493;-78
2022/07/28 08:20:50;;;;;;;2.70;1.57;;;;;;;;;;5055178;28;20452;-77
2022/07/28 08:23:16;;;;;;;6.37;1.90;;;;;;;;;;5054751;28;20547;-79
2022/07/28 08:25:43;;;;;;;4.17;1.50;;;;;;;;;;5054928;28;20461;-77
2022/07/28 08:28:09;;;;;;;2.93;1.50;;;;;;;;;;5054717;28;20443;-77
2022/07/28 08:30:35;;;;;;;3.40;1.57;;;;;;;;;;5056027;28;20408;-78
2022/07/28 08:33:01;;;;;;;5.40;1.60;;;;;;;;;;5054714;28;20440;-77
2022/07/28 08:35:27;;;;;;;4.50;1.60;;;;;;;;;;5053735;28;20556;-78
2022/07/28 08:37:53;;;;;;;4.90;1.90;;;;;;;;;;5055107;28;20496;-78
2022/07/28 08:40:19;;;;;;;4.73;1.70;;;;;;;;;;5054868;28;20416;-80
2022/07/28 08:43:03;;;;;;;2.90;1.77;;;;;;;;;;5054867;28;20420;-78
2022/07/28 08:45:31;;;;;;;4.90;1.67;;;;;;;;;;5053866;28;20786;-80
2022/07/28 08:47:58;;;;;;;5.17;1.70;;;;;;;;;;5036924;28;20420;-78
2022/07/28 08:50:24;;;;;;;3.57;1.70;;;;;;;;;;5054536;28;20471;-77
2022/07/28 08:52:52;;;;;;;6.70;1.80;;;;;;;;;;5054337;28;20420;-78
2022/07/28 08:55:22;;;;;;;5.20;1.47;;;;;;;;;;5054539;28;20459;-78
2022/07/28 08:57:49;;;;;;;2.60;1.20;;;;;;;;;;5052244;28;20873;-77
2022/07/28 09:00:15;;;;;;;2.70;1.50;;;;;;;;;;5051905;28;20463;-79
2022/07/28 09:02:41;;;;;;;4.67;1.60;;;;;;;;;;5051460;28;20421;-78
2022/07/28 09:05:08;;;;;;;2.73;1.37;;;;;;;;;;5052101;28;20901;-77
2022/07/28 09:07:40;;;;;;;2.57;1.67;;;;;;;;;;5053554;28;20409;-77
2022/07/28 09:10:06;;;;;;;5.97;1.70;;;;;;;;;;5053703;28;20794;-79
2022/07/28 09:12:33;;;;;;;4.00;1.43;;;;;;;;;;5056320;28;20460;-79
2022/07/28 09:15:01;;;;;;;4.60;1.70;;;;;;;;;;5052452;28;20576;-77
2022/07/28 09:17:27;;;;;;;8.30;2.20;;;;;;;;;;5054366;28;20782;-77
2022/07/28 09:19:53;;;;;;;5.97;1.60;;;;;;;;;;5054379;28;20409;-79
2022/07/28 09:22:19;;;;;;;4.30;1.50;;;;;;;;;;5051695;28;20477;-76
2022/07/28 09:24:45;;;;;;;3.40;1.30;;;;;;;;;;5053041;28;20441;-78
2022/07/28 09:27:12;;;;;;;3.90;1.10;;;;;;;;;;5052945;28;20903;-78
2022/07/28 09:29:39;;;;;;;2.60;1.57;;;;;;;;;;5053061;28;20499;-77
2022/07/28 09:32:06;;;;;;;3.63;1.83;;;;;;;;;;5053181;28;20417;-78
2022/07/28 09:34:40;;;;;;;2.50;1.43;;;;;;;;;;5053037;28;20887;-76
2022/07/28 09:37:06;;;;;;;3.37;1.57;;;;;;;;;;5057742;28;20408;-78
2022/07/28 09:39:33;;;;;;;2.80;1.47;;;;;;;;;;5053284;28;20431;-78
2022/07/28 09:41:59;;;;;;;5.70;1.60;;;;;;;;;;5052805;28;20423;-77
2022/07/28 09:44:26;;;;;;;5.57;1.60;;;;;;;;;;5052377;28;20432;-77
2022/07/28 09:46:52;;;;;;;2.63;1.13;;;;;;;;;;5052615;28;20419;-76
2022/07/28 09:49:18;;;;;;;4.00;1.40;;;;;;;;;;5051643;28;20490;-76
2022/07/28 09:52:02;;;;;;;1.53;1.00;;;;;;;;;;5052855;28;20404;-75
2022/07/28 09:54:28;;;;;;;2.40;1.20;;;;;;;;;;5052646;28;20457;-77
2022/07/28 09:56:54;;;;;;;7.23;1.37;;;;;;;;;;5055321;28;20405;-78
2022/07/28 09:59:21;;;;;;;4.33;1.30;;;;;;;;;;5041795;28;20437;-79
2022/07/28 10:01:55;;;;;;;4.83;1.50;;;;;;;;;;5036317;28;20459;-79
2022/07/28 10:04:31;;;;;;;2.10;1.57;;;;;;;;;;5035912;28;20417;-77
2022/07/28 10:07:01;;;;;;;3.70;1.30;;;;;;;;;;5036414;28;20419;-78
2022/07/28 10:09:27;;;;;;;7.13;1.70;;;;;;;;;;5036126;28;20405;-76
2022/07/28 10:11:53;;;;;;;3.30;1.10;;;;;;;;;;5036636;28;20405;-78
2022/07/28 10:14:22;;;;;;;3.97;1.20;;;;;;;;;;5034518;28;20551;-78
2022/07/28 10:16:52;;;;;;;2.00;1.10;;;;;;;;;;5034871;28;20512;-76
2022/07/28 10:19:18;;;;;;;3.13;1.50;;;;;;;;;;5036617;28;20409;-76
2022/07/28 10:21:44;;;;;;;5.33;1.77;;;;;;;;;;5036186;28;20413;-76
2022/07/28 10:24:14;;;;;;;2.70;1.20;;;;;;;;;;5036130;28;20441;-76
2022/07/28 10:26:44;;;;;;;3.13;1.50;;;;;;;;;;5052719;28;20427;-76
2022/07/28 10:29:12;;;;;;;2.23;1.37;;;;;;;;;;5056236;28;20482;-75
2022/07/28 10:31:48;;;;;;;5.63;1.70;;;;;;;;;;5055832;28;20413;-75
2022/07/28 10:34:21;;;;;;;4.30;1.47;;;;;;;;;;5055778;28;20993;-76
2022/07/28 10:36:52;;;;;;;3.73;1.27;;;;;;;;;;5056263;28;20749;-76
2022/07/28 10:39:19;;;;;;;6.27;1.53;;;;;;;;;;5055812;28;20408;-76
2022/07/28 10:41:45;;;;;;;2.80;1.40;;;;;;;;;;5055948;28;20413;-76
2022/07/28 10:44:17;;;;;;;3.57;1.30;;;;;;;;;;5055715;28;20751;-76
2022/07/28 10:46:43;;;;;;;3.23;1.53;;;;;;;;;;5055717;28;20432;-76
2022/07/28 10:49:11;;;;;;;1.63;0.97;;;;;;;;;;5055728;28;20404;-78
2022/07/28 10:51:42;;;;;;;4.70;1.23;;;;;;;;;;5054426;28;20503;-78
2022/07/28 10:54:20;;;;;;;1.80;1.27;;;;;;;;;;5055041;28;20823;-78
2022/07/28 10:57:05;;;;;;;4.97;1.73;;;;;;;;;;5054659;28;20921;-76
2022/07/28 10:59:47;;;;;;;2.43;1.20;;;;;;;;;;5055378;28;20484;-76
2022/07/28 11:02:32;;;;;;;3.23;1.40;;;;;;;;;;5055149;28;20462;-76
2022/07/28 11:05:00;;;;;;;3.67;1.53;;;;;;;;;;5054993;28;20562;-77
2022/07/28 11:07:37;;;;;;;2.53;1.37;;;;;;;;;;5054150;28;20816;-77
2022/07/28 11:10:21;;;;;;;2.63;1.33;;;;;;;;;;5055129;28;20538;-77
2022/07/28 11:12:47;;;;;;;3.70;1.50;;;;;;;;;;5053306;28;20412;-76
2022/07/28 11:15:31;;;;;;;6.90;2.20;;;;;;;;;;5055233;28;20816;-76
2022/07/28 11:18:18;;;;;;;5.03;2.20;;;;;;;;;;5054985;28;20496;-77
2022/07/28 11:20:56;;;;;;;4.40;1.00;;;;;;;;;;5054959;28;20408;-77
2022/07/28 11:23:42;;;;;;;3.43;1.40;;;;;;;;;;5054247;28;20496;-76
2022/07/28 11:26:21;;;;;;;3.20;1.60;;;;;;;;;;5053632;28;20462;-77
2022/07/28 11:28:59;;;;;;;2.50;1.17;;;;;;;;;;5054762;28;20408;-76
2022/07/28 11:31:43;;;;;;;1.67;1.03;;;;;;;;;;5054710;28;20413;-76
2022/07/28 11:34:13;;;;;;;2.80;1.30;;;;;;;;;;5052993;28;20500;-76
2022/07/28 11:37:06;;;;;;;3.30;1.30;;;;;;;;;;5054635;28;20944;-76
2022/07/28 11:39:44;;;;;;;2.33;1.20;;;;;;;;;;5054687;28;20487;-75
2022/07/28 11:42:31;;;;;;;1.37;0.90;;;;;;;;;;5054525;28;20404;-76
2022/07/28 11:45:16;;;;;;;2.27;1.37;;;;;;;;;;5054321;28;20445;-76
2022/07/28 11:47:42;;;;;;;3.43;1.60;;;;;;;;;;5054272;28;20420;-75
2022/07/28 11:50:15;;;;;;;3.00;1.30;;;;;;;;;;5054569;28;20408;-75
2022/07/28 11:52:54;;;;;;;3.03;1.10;;;;;;;;;;5049343;28;20497;-76
2022/07/28 11:55:20;;;;;;;3.80;1.50;;;;;;;;;;5036573;28;20463;-76
2022/07/28 11:57:46;;;;;;;1.27;1.17;;;;;;;;;;5033374;28;20409;-75
2022/07/28 12:00:19;;;;;;;2.20;1.00;;;;;;;;;;5029904;28;20436;-75
2022/07/28 12:02:45;;;;;;;3.20;1.40;;;;;;;;;;5032493;28;20449;-75
2022/07/28 12:05:12;;;;;;;3.17;1.37;;;;;;;;;;5032244;28;20425;-74
2022/07/28 12:07:39;;;;;;;2.73;1.50;;;;;;;;;;5032108;28;20421;-74
2022/07/28 12:10:24;;;;;;;2.53;1.40;;;;;;;;;;5032241;28;20487;-74
2022/07/28 12:12:51;;;;;;;2.67;1.30;;;;;;;;;;5032260;28;20433;-74
2022/07/28 12:15:18;;;;;;;4.40;1.73;;;;;;;;;;5031315;28;20476;-75
2022/07/28 12:17:44;;;;;;;4.10;1.47;;;;;;;;;;5033774;28;20925;-75
2022/07/28 12:20:12;;;;;;;2.60;1.23;;;;;;;;;;5031948;28;20413;-74
2022/07/28 12:22:38;;;;;;;3.07;1.00;;;;;;;;;;5031636;28;20428;-75
2022/07/28 12:25:04;;;;;;;8.53;1.90;;;;;;;;;;5032392;28;20788;-75
2022/07/28 12:27:30;;;;;;;3.07;1.63;;;;;;;;;;5030876;28;20448;-75
2022/07/28 12:30:00;;;;;;;6.10;1.10;;;;;;;;;;5032258;28;20425;-75
2022/07/28 12:32:31;;;;;;;5.00;1.30;;;;;;;;;;5031651;28;20440;-75
2022/07/28 12:34:57;;;;;;;3.53;1.23;;;;;;;;;;5031234;28;20480;-76
2022/07/28 12:37:23;;;;;;;2.10;1.20;;;;;;;;;;5031527;28;20421;-76
2022/07/28 12:39:50;;;;;;;2.00;1.10;;;;;;;;;;5032159;28;20559;-76
2022/07/28 12:42:16;;;;;;;4.03;1.10;;;;;;;;;;5030658;28;20474;-76
2022/07/28 12:44:43;;;;;;;2.07;1.10;;;;;;;;;;5031973;28;20464;-75
2022/07/28 12:47:11;;;;;;;1.40;1.10;;;;;;;;;;5029993;28;20569;-76
2022/07/28 12:49:38;;;;;;;2.23;1.40;;;;;;;;;;5031240;28;20824;-76
2022/07/28 12:52:20;;;;;;;2.00;1.20;;;;;;;;;;5031519;28;20444;-75
2022/07/28 12:54:46;;;;;;;2.13;1.10;;;;;;;;;;5036236;28;20487;-76
2022/07/28 12:57:12;;;;;;;3.30;1.20;;;;;;;;;;5046963;28;20440;-76
2022/07/28 12:59:38;;;;;;;3.17;1.10;;;;;;;;;;5051366;28;20432;-75
2022/07/28 13:02:07;;;;;;;3.37;1.20;;;;;;;;;;5051403;28;20913;-77
2022/07/28 13:04:38;;;;;;;3.33;1.00;;;;;;;;;;5050536;28;20438;-77
2022/07/28 13:07:11;;;;;;;3.80;1.63;;;;;;;;;;5050997;28;20431;-77
2022/07/28 13:09:44;;;;;;;2.60;1.60;;;;;;;;;;5051536;28;20429;-77
2022/07/28 13:12:17;;;;;;;3.17;1.30;;;;;;;;;;5050840;28;20513;-76
2022/07/28 13:14:44;;;;;;;3.57;1.30;;;;;;;;;;5051247;28;20488;-77
2022/07/28 13:17:10;;;;;;;3.47;1.40;;;;;;;;;;5051431;28;20769;-74
2022/07/28 13:19:36;;;;;;;6.33;1.43;;;;;;;;;;5050315;28;20496;-77
2022/07/28 13:22:03;;;;;;;2.83;1.10;;;;;;;;;;5051572;28;20421;-75
2022/07/28 13:24:29;;;;;;;2.83;1.00;;;;;;;;;;5051053;28;20468;-78
2022/07/28 13:26:57;;;;;;;1.63;1.23;;;;;;;;;;5050816;28;20465;-76
2022/07/28 13:29:23;;;;;;;2.50;1.00;;;;;;;;;;5051560;28;20807;-76
2022/07/28 13:31:50;;;;;;;2.80;1.30;;;;;;;;;;5053723;28;20424;-76
2022/07/28 13:34:17;;;;;;;4.03;1.27;;;;;;;;;;5054618;28;20474;-76
2022/07/28 13:36:43;;;;;;;5.80;1.40;;;;;;;;;;5055084;28;20431;-76
2022/07/28 13:39:09;;;;;;;5.03;1.50;;;;;;;;;;5055146;28;20420;-76
2022/07/28 13:41:36;;;;;;;4.47;1.40;;;;;;;;;;5054056;28;20763;-76
2022/07/28 13:44:02;;;;;;;2.50;1.20;;;;;;;;;;5054955;28;20455;-76
2022/07/28 13:46:28;;;;;;;4.13;1.10;;;;;;;;;;5054764;28;20460;-75
2022/07/28 13:48:55;;;;;;;1.70;1.20;;;;;;;;;;5054771;28;20427;-75
2022/07/28 13:51:21;;;;;;;1.43;1.13;;;;;;;;;;5057279;28;20428;-76
2022/07/28 13:53:47;;;;;;;5.90;1.27;;;;;;;;;;5057253;28;20425;-77
2022/07/28 13:56:13;;;;;;;3.70;1.50;;;;;;;;;;5045232;28;20508;-76
2022/07/28 13:58:39;;;;;;;2.97;1.20;;;;;;;;;;5052883;28;20479;-76
2022/07/28 14:01:05;;;;;;;3.17;1.13;;;;;;;;;;5054725;28;21397;-76
2022/07/28 14:03:31;;;;;;;3.17;1.33;;;;;;;;;;5054332;28;20460;-76
2022/07/28 14:05:58;;;;;;;2.23;1.00;;;;;;;;;;5053548;28;20462;-76
2022/07/28 14:08:24;;;;;;;2.80;1.17;;;;;;;;;;5054736;28;20817;-76
2022/07/28 14:10:51;;;;;;;5.10;1.60;;;;;;;;;;5054607;28;20425;-76
2022/07/28 14:13:18;;;;;;;4.40;1.30;;;;;;;;;;5052386;28;20458;-76
2022/07/28 14:15:44;;;;;;;1.90;0.90;;;;;;;;;;5054112;28;20498;-77
2022/07/28 14:18:10;;;;;;;4.80;1.07;;;;;;;;;;5054630;28;20420;-77
2022/07/28 14:20:36;;;;;;;1.67;1.37;;;;;;;;;;5053550;28;20416;-79
2022/07/28 14:23:02;;;;;;;1.43;1.20;;;;;;;;;;5054222;28;20930;-76
2022/07/28 14:25:28;;;;;;;4.50;1.20;;;;;;;;;;5054394;28;20503;-75
2022/07/28 14:27:54;;;;;;;2.23;1.40;;;;;;;;;;5053420;28;20618;-76
2022/07/28 14:30:21;;;;;;;2.07;1.20;;;;;;;;;;5054300;28;20432;-76
2022/07/28 14:32:48;;;;;;;2.20;1.13;;;;;;;;;;5053906;28;20579;-75
2022/07/28 14:35:14;;;;;;;2.20;1.13;;;;;;;;;;5053404;28;20503;-75
2022/07/28 14:37:40;;;;;;;3.17;1.30;;;;;;;;;;5053933;28;20512;-76
2022/07/28 14:40:06;;;;;;;2.57;1.37;;;;;;;;;;5054334;28;20497;-76
2022/07/28 14:42:32;;;;;;;2.03;1.27;;;;;;;;;;5051682;28;20794;-76
2022/07/28 14:44:58;;;;;;;2.43;1.40;;;;;;;;;;5054327;28;20444;-76
2022/07/28 14:47:28;;;;;;;1.60;1.10;;;;;;;;;;5053761;28;20425;-77
2022/07/28 14:49:54;;;;;;;4.00;1.30;;;;;;;;;;5054143;28;20417;-76
2022/07/28 14:52:20;;;;;;;1.47;1.10;;;;;;;;;;5052549;28;20441;-77